sensor_id;sensor_type;location;lat;lon;timestamp;temperature;humidity
37896;DHT22;23733;53.254;10.430;2023-06-26T04:27:05;23.70;99.90
37896;DHT22;23733;53.254;10.430;2023-06-26T04:29:31;21.60;99.90
37896;DHT22;23733;53.254;10.430;2023-06-26T04:31:57;21.60;99.90
37896;DHT22;23733;53.254;10.430;2023-06-26T06:27:51;21.70;99.90
37896;DHT22;23733;53.254;10.430;2023-06-26T06:30:18;24.70;99.90
37896;DHT22;23733;53.254;10.430;2023-06-26T06:32:44;24.70;99.90
37896;DHT22;23733;53.254;10.430;2023-06-26T06:35:10;24.70;99.90
37896;DHT22;23733;53.254;10.430;2023-06-26T06:37:37;24.80;99.90
37896;DHT22;23733;53.254;10.430;2023-06-26T06:40:05;24.90;99.90
37896;DHT22;23733;53.254;10.430;2023-06-26T10:20:50;25.00;99.90
37896;DHT22;23733;53.254;10.430;2023-06-26T10:23:18;28.60;99.90
37896;DHT22;23733;53.254;10.430;2023-06-26T10:25:46;28.60;99.90
37896;DHT22;23733;53.254;10.430;2023-06-26T10:28:16;28.60;99.90
37896;DHT22;23733;53.254;10.430;2023-06-26T10:30:44;28.70;99.90
37896;DHT22;23733;53.254;10.430;2023-06-26T10:33:12;28.70;99.90
37896;DHT22;23733;53.254;10.430;2023-06-26T10:35:43;28.70;99.90
37896;DHT22;23733;53.254;10.430;2023-06-26T10:38:09;28.70;99.90
37896;DHT22;23733;53.254;10.430;2023-06-26T10:40:43;28.60;99.90
37896;DHT22;23733;53.254;10.430;2023-06-26T10:43:12;28.40;99.90
37896;DHT22;23733;53.254;10.430;2023-06-26T10:45:46;28.30;99.90
37896;DHT22;23733;53.254;10.430;2023-06-26T10:53:10;28.00;99.90
37896;DHT22;23733;53.254;10.430;2023-06-26T11:08:22;26.80;99.90
37896;DHT22;23733;53.254;10.430;2023-06-26T11:11:08;23.70;99.90
37896;DHT22;23733;53.254;10.430;2023-06-26T11:13:34;23.50;99.90
37896;DHT22;23733;53.254;10.430;2023-06-26T11:16:01;23.60;99.90
37896;DHT22;23733;53.254;10.430;2023-06-26T11:18:27;23.80;99.90
37896;DHT22;23733;53.254;10.430;2023-06-26T11:20:53;23.70;99.90
37896;DHT22;23733;53.254;10.430;2023-06-26T11:23:22;23.50;99.90
37896;DHT22;23733;53.254;10.430;2023-06-26T11:25:49;23.40;99.90
37896;DHT22;23733;53.254;10.430;2023-06-26T11:28:15;23.40;99.90
37896;DHT22;23733;53.254;10.430;2023-06-26T11:30:41;23.50;99.90
37896;DHT22;23733;53.254;10.430;2023-06-26T11:33:09;23.40;99.90
37896;DHT22;23733;53.254;10.430;2023-06-26T11:35:36;23.30;99.90
37896;DHT22;23733;53.254;10.430;2023-06-26T11:38:03;23.20;99.90
37896;DHT22;23733;53.254;10.430;2023-06-26T12:34:39;23.20;99.90
37896;DHT22;23733;53.254;10.430;2023-06-26T13:04:26;23.60;99.90
37896;DHT22;23733;53.254;10.430;2023-06-26T14:20:23;24.00;99.90
37896;DHT22;23733;53.254;10.430;2023-06-26T15:40:59;23.70;99.90
37896;DHT22;23733;53.254;10.430;2023-06-26T15:43:25;23.20;99.90
37896;DHT22;23733;53.254;10.430;2023-06-26T15:45:51;23.10;99.90
37896;DHT22;23733;53.254;10.430;2023-06-26T15:48:17;23.00;99.90
37896;DHT22;23733;53.254;10.430;2023-06-26T15:50:43;22.90;99.90
37896;DHT22;23733;53.254;10.430;2023-06-26T15:53:09;22.90;99.90
37896;DHT22;23733;53.254;10.430;2023-06-26T15:55:35;22.90;99.90
37896;DHT22;23733;53.254;10.430;2023-06-26T15:58:01;22.90;99.90
37896;DHT22;23733;53.254;10.430;2023-06-26T16:00:27;23.00;99.90
37896;DHT22;23733;53.254;10.430;2023-06-26T16:02:53;22.90;99.90
37896;DHT22;23733;53.254;10.430;2023-06-26T16:05:19;22.80;99.90
37896;DHT22;23733;53.254;10.430;2023-06-26T16:07:45;22.90;99.90
37896;DHT22;23733;53.254;10.430;2023-06-26T16:10:11;22.70;99.90
37896;DHT22;23733;53.254;10.430;2023-06-26T16:12:37;22.60;99.90
37896;DHT22;23733;53.254;10.430;2023-06-26T16:15:03;22.50;99.90
37896;DHT22;23733;53.254;10.430;2023-06-26T16:17:29;22.50;99.90
37896;DHT22;23733;53.254;10.430;2023-06-26T16:19:55;22.40;99.90
37896;DHT22;23733;53.254;10.430;2023-06-26T16:22:21;22.40;99.90
37896;DHT22;23733;53.254;10.430;2023-06-26T16:24:47;22.40;99.90
37896;DHT22;23733;53.254;10.430;2023-06-26T16:27:13;22.40;99.90
37896;DHT22;23733;53.254;10.430;2023-06-26T16:29:39;22.40;99.90
37896;DHT22;23733;53.254;10.430;2023-06-26T16:32:09;22.40;99.90
37896;DHT22;23733;53.254;10.430;2023-06-26T16:34:35;22.30;99.90
37896;DHT22;23733;53.254;10.430;2023-06-26T16:37:01;22.30;99.90
37896;DHT22;23733;53.254;10.430;2023-06-26T16:39:35;22.30;99.90
37896;DHT22;23733;53.254;10.430;2023-06-26T16:42:01;22.00;99.90
37896;DHT22;23733;53.254;10.430;2023-06-26T16:44:27;22.00;99.90
37896;DHT22;23733;53.254;10.430;2023-06-26T16:46:56;21.90;99.90
37896;DHT22;23733;53.254;10.430;2023-06-26T16:49:24;22.00;99.90
37896;DHT22;23733;53.254;10.430;2023-06-26T16:51:50;22.10;99.90
37896;DHT22;23733;53.254;10.430;2023-06-26T16:54:18;22.10;99.90
37896;DHT22;23733;53.254;10.430;2023-06-26T16:56:44;22.10;99.90
37896;DHT22;23733;53.254;10.430;2023-06-26T16:59:10;22.10;99.90
37896;DHT22;23733;53.254;10.430;2023-06-26T17:01:36;22.20;99.90
37896;DHT22;23733;53.254;10.430;2023-06-26T17:04:02;22.20;99.90
37896;DHT22;23733;53.254;10.430;2023-06-26T17:06:28;22.30;99.90
37896;DHT22;23733;53.254;10.430;2023-06-26T17:08:54;22.20;99.90
37896;DHT22;23733;53.254;10.430;2023-06-26T17:11:20;22.10;99.90
37896;DHT22;23733;53.254;10.430;2023-06-26T17:13:46;22.10;99.90
37896;DHT22;23733;53.254;10.430;2023-06-26T17:16:12;22.20;99.90
37896;DHT22;23733;53.254;10.430;2023-06-26T17:18:39;22.20;99.90
37896;DHT22;23733;53.254;10.430;2023-06-26T17:21:05;21.90;99.90
37896;DHT22;23733;53.254;10.430;2023-06-26T17:23:31;21.80;99.90
37896;DHT22;23733;53.254;10.430;2023-06-26T17:25:57;21.80;99.90
37896;DHT22;23733;53.254;10.430;2023-06-26T17:28:24;21.80;99.90
37896;DHT22;23733;53.254;10.430;2023-06-26T17:30:50;21.90;99.90
37896;DHT22;23733;53.254;10.430;2023-06-26T17:33:18;21.90;99.90
37896;DHT22;23733;53.254;10.430;2023-06-26T17:35:44;21.90;99.90
37896;DHT22;23733;53.254;10.430;2023-06-26T17:38:10;22.00;99.90
37896;DHT22;23733;53.254;10.430;2023-06-26T17:40:36;22.00;99.90
37896;DHT22;23733;53.254;10.430;2023-06-26T17:43:02;21.90;99.90
37896;DHT22;23733;53.254;10.430;2023-06-26T17:45:28;21.80;99.90
37896;DHT22;23733;53.254;10.430;2023-06-26T17:47:55;21.70;99.90
37896;DHT22;23733;53.254;10.430;2023-06-26T17:50:24;21.60;99.90
37896;DHT22;23733;53.254;10.430;2023-06-26T17:52:50;21.60;99.90
37896;DHT22;23733;53.254;10.430;2023-06-26T17:55:16;21.60;99.90
37896;DHT22;23733;53.254;10.430;2023-06-26T17:57:42;21.50;99.90
37896;DHT22;23733;53.254;10.430;2023-06-26T18:00:09;21.60;99.90
37896;DHT22;23733;53.254;10.430;2023-06-26T18:02:36;21.50;99.90
37896;DHT22;23733;53.254;10.430;2023-06-26T18:05:04;21.40;99.90
37896;DHT22;23733;53.254;10.430;2023-06-26T18:07:30;21.40;99.90
37896;DHT22;23733;53.254;10.430;2023-06-26T18:09:56;21.30;99.90
37896;DHT22;23733;53.254;10.430;2023-06-26T18:12:22;21.30;99.90
37896;DHT22;23733;53.254;10.430;2023-06-26T18:14:49;21.30;99.90
37896;DHT22;23733;53.254;10.430;2023-06-26T18:17:15;21.20;99.90
37896;DHT22;23733;53.254;10.430;2023-06-26T18:19:41;21.30;99.90
37896;DHT22;23733;53.254;10.430;2023-06-26T18:22:07;21.20;99.90
37896;DHT22;23733;53.254;10.430;2023-06-26T18:24:33;21.20;99.90
37896;DHT22;23733;53.254;10.430;2023-06-26T18:26:59;21.30;99.90
37896;DHT22;23733;53.254;10.430;2023-06-26T18:29:25;21.30;99.90
37896;DHT22;23733;53.254;10.430;2023-06-26T18:31:51;21.30;99.90
37896;DHT22;23733;53.254;10.430;2023-06-26T18:34:17;21.40;99.90
37896;DHT22;23733;53.254;10.430;2023-06-26T18:36:43;21.30;99.90
37896;DHT22;23733;53.254;10.430;2023-06-26T18:39:09;21.20;99.90
37896;DHT22;23733;53.254;10.430;2023-06-26T18:41:37;21.20;99.90
37896;DHT22;23733;53.254;10.430;2023-06-26T18:44:03;21.10;99.90
37896;DHT22;23733;53.254;10.430;2023-06-26T18:46:32;21.20;99.90
37896;DHT22;23733;53.254;10.430;2023-06-26T18:49:05;21.00;99.90
37896;DHT22;23733;53.254;10.430;2023-06-26T18:51:33;20.90;99.90
37896;DHT22;23733;53.254;10.430;2023-06-26T18:54:02;20.90;99.90
37896;DHT22;23733;53.254;10.430;2023-06-26T18:56:33;20.90;99.90
37896;DHT22;23733;53.254;10.430;2023-06-26T18:58:59;20.90;99.90
37896;DHT22;23733;53.254;10.430;2023-06-26T19:01:26;20.80;99.90
37896;DHT22;23733;53.254;10.430;2023-06-26T19:03:52;20.80;99.90
37896;DHT22;23733;53.254;10.430;2023-06-26T19:06:21;20.70;99.90
37896;DHT22;23733;53.254;10.430;2023-06-26T19:08:50;20.60;99.90
37896;DHT22;23733;53.254;10.430;2023-06-26T19:11:16;20.60;99.90
37896;DHT22;23733;53.254;10.430;2023-06-26T19:13:44;20.70;99.90
37896;DHT22;23733;53.254;10.430;2023-06-26T19:16:14;20.70;99.90
37896;DHT22;23733;53.254;10.430;2023-06-26T19:18:40;20.80;99.90
37896;DHT22;23733;53.254;10.430;2023-06-26T19:21:06;20.80;99.90
37896;DHT22;23733;53.254;10.430;2023-06-26T19:23:32;20.80;99.90
37896;DHT22;23733;53.254;10.430;2023-06-26T19:25:59;20.60;99.90
37896;DHT22;23733;53.254;10.430;2023-06-26T19:28:25;20.70;99.90
37896;DHT22;23733;53.254;10.430;2023-06-26T19:30:51;20.60;99.90
37896;DHT22;23733;53.254;10.430;2023-06-26T19:33:17;20.50;99.90
37896;DHT22;23733;53.254;10.430;2023-06-26T19:35:46;20.50;99.90
37896;DHT22;23733;53.254;10.430;2023-06-26T19:38:12;20.50;99.90
37896;DHT22;23733;53.254;10.430;2023-06-26T19:40:38;20.60;99.90
37896;DHT22;23733;53.254;10.430;2023-06-26T19:43:07;20.50;99.90
37896;DHT22;23733;53.254;10.430;2023-06-26T19:45:36;20.50;99.90
37896;DHT22;23733;53.254;10.430;2023-06-26T19:48:14;20.50;99.90
37896;DHT22;23733;53.254;10.430;2023-06-26T19:50:41;20.40;99.90
37896;DHT22;23733;53.254;10.430;2023-06-26T19:53:10;20.50;99.90
37896;DHT22;23733;53.254;10.430;2023-06-26T19:55:36;20.50;99.90
37896;DHT22;23733;53.254;10.430;2023-06-26T19:58:02;20.50;99.90
37896;DHT22;23733;53.254;10.430;2023-06-26T20:00:31;20.60;99.90
37896;DHT22;23733;53.254;10.430;2023-06-26T20:02:59;20.60;99.90
37896;DHT22;23733;53.254;10.430;2023-06-26T20:05:28;20.60;99.90
37896;DHT22;23733;53.254;10.430;2023-06-26T20:07:54;20.60;99.90
37896;DHT22;23733;53.254;10.430;2023-06-26T20:10:20;20.50;99.90
37896;DHT22;23733;53.254;10.430;2023-06-26T20:12:46;20.40;99.90
37896;DHT22;23733;53.254;10.430;2023-06-26T20:15:12;20.30;99.90
37896;DHT22;23733;53.254;10.430;2023-06-26T20:17:38;20.20;99.90
37896;DHT22;23733;53.254;10.430;2023-06-26T20:20:16;20.20;99.90
37896;DHT22;23733;53.254;10.430;2023-06-26T20:22:48;20.10;99.90
37896;DHT22;23733;53.254;10.430;2023-06-26T20:25:15;20.20;99.90
37896;DHT22;23733;53.254;10.430;2023-06-26T20:27:41;20.20;99.90
37896;DHT22;23733;53.254;10.430;2023-06-26T20:30:07;20.20;99.90
37896;DHT22;23733;53.254;10.430;2023-06-26T20:32:33;20.20;99.90
37896;DHT22;23733;53.254;10.430;2023-06-26T20:34:59;20.00;99.90
37896;DHT22;23733;53.254;10.430;2023-06-26T20:37:25;20.10;99.90
37896;DHT22;23733;53.254;10.430;2023-06-26T20:39:55;20.10;99.90
37896;DHT22;23733;53.254;10.430;2023-06-26T20:42:26;19.90;99.90
37896;DHT22;23733;53.254;10.430;2023-06-26T20:44:52;19.90;99.90
37896;DHT22;23733;53.254;10.430;2023-06-26T20:47:22;19.80;99.90
37896;DHT22;23733;53.254;10.430;2023-06-26T20:49:56;19.70;99.90
37896;DHT22;23733;53.254;10.430;2023-06-26T20:52:25;19.60;99.90
37896;DHT22;23733;53.254;10.430;2023-06-26T20:54:52;19.60;99.90
37896;DHT22;23733;53.254;10.430;2023-06-26T20:57:18;19.60;99.90
37896;DHT22;23733;53.254;10.430;2023-06-26T20:59:44;19.60;99.90
37896;DHT22;23733;53.254;10.430;2023-06-26T21:02:10;19.60;99.90
37896;DHT22;23733;53.254;10.430;2023-06-26T21:04:36;19.50;99.90
37896;DHT22;23733;53.254;10.430;2023-06-26T21:07:02;19.50;99.90
37896;DHT22;23733;53.254;10.430;2023-06-26T21:09:29;19.50;99.90
37896;DHT22;23733;53.254;10.430;2023-06-26T21:11:55;19.50;99.90
37896;DHT22;23733;53.254;10.430;2023-06-26T21:14:21;19.50;99.90
37896;DHT22;23733;53.254;10.430;2023-06-26T21:16:47;19.50;99.90
37896;DHT22;23733;53.254;10.430;2023-06-26T21:19:13;19.40;99.90
37896;DHT22;23733;53.254;10.430;2023-06-26T21:21:39;19.40;99.90
37896;DHT22;23733;53.254;10.430;2023-06-26T21:24:06;19.40;99.90
37896;DHT22;23733;53.254;10.430;2023-06-26T21:26:32;19.40;99.90
37896;DHT22;23733;53.254;10.430;2023-06-26T21:28:58;19.40;99.90
37896;DHT22;23733;53.254;10.430;2023-06-26T21:31:24;19.30;99.90
37896;DHT22;23733;53.254;10.430;2023-06-26T21:33:50;19.30;99.90
37896;DHT22;23733;53.254;10.430;2023-06-26T21:36:16;19.30;99.90
37896;DHT22;23733;53.254;10.430;2023-06-26T21:38:42;19.30;99.90
37896;DHT22;23733;53.254;10.430;2023-06-26T21:41:09;19.30;99.90
37896;DHT22;23733;53.254;10.430;2023-06-26T21:43:35;19.30;99.90
37896;DHT22;23733;53.254;10.430;2023-06-26T21:46:03;19.20;99.90
37896;DHT22;23733;53.254;10.430;2023-06-26T21:48:29;19.20;99.90
37896;DHT22;23733;53.254;10.430;2023-06-26T21:50:55;19.20;99.90
37896;DHT22;23733;53.254;10.430;2023-06-26T21:53:21;19.10;99.90
37896;DHT22;23733;53.254;10.430;2023-06-26T21:55:47;19.00;99.90
37896;DHT22;23733;53.254;10.430;2023-06-26T21:58:13;19.00;99.90
37896;DHT22;23733;53.254;10.430;2023-06-26T22:00:42;19.00;99.90
37896;DHT22;23733;53.254;10.430;2023-06-26T22:03:08;18.90;99.90
37896;DHT22;23733;53.254;10.430;2023-06-26T22:05:40;18.80;99.90
37896;DHT22;23733;53.254;10.430;2023-06-26T22:08:09;18.90;99.90
37896;DHT22;23733;53.254;10.430;2023-06-26T22:10:39;18.80;99.90
37896;DHT22;23733;53.254;10.430;2023-06-26T22:13:08;18.70;99.90
37896;DHT22;23733;53.254;10.430;2023-06-26T22:15:34;18.70;99.90
37896;DHT22;23733;53.254;10.430;2023-06-26T22:18:00;18.70;99.90
37896;DHT22;23733;53.254;10.430;2023-06-26T22:20:27;18.70;99.90
37896;DHT22;23733;53.254;10.430;2023-06-26T22:22:53;18.80;99.90
37896;DHT22;23733;53.254;10.430;2023-06-26T23:04:35;18.80;99.90
37896;DHT22;23733;53.254;10.430;2023-06-26T23:07:01;18.20;99.90
37896;DHT22;23733;53.254;10.430;2023-06-26T23:09:27;18.20;99.90
37896;DHT22;23733;53.254;10.430;2023-06-26T23:11:53;18.10;99.90
37896;DHT22;23733;53.254;10.430;2023-06-26T23:31:48;18.10;99.90
37896;DHT22;23733;53.254;10.430;2023-06-26T23:34:15;17.80;99.90
37896;DHT22;23733;53.254;10.430;2023-06-26T23:36:48;17.70;99.90
37896;DHT22;23733;53.254;10.430;2023-06-26T23:39:20;17.60;99.90
